Wardner, Idaho
Current Conditions -  °F | °C
As of 6:53 PM on Monday 20 Oct 2014 (Local Time) from KMLP Reporting Station
Clear Clear  
Wind Chill: 45°   Ceiling: Unl
Heat Index: 47°   Visibility: 10mi
Dew Point: 35°   Wind: 5mph
Humidity: 63%   Direction: 310°NW
Pressure: 29.84"   Gusts: NA
Location:  47.7187°N, 116.087°W
Report Text: KMLP 210153Z AUTO 31004KT 10SM CLR 08/02 A2984 RMK AO2 SLP035 T00830017
Loading
Personal Weather Stations






























Interactive Weather Map
Tropical Storm Tracking
New forecast layout! Learn more

10-Day Weather Forecast

Advertisements
Track Severe Weather on mobile